sensor_id;sensor_type;location;lat;lon;timestamp;temperature;humidity
45945;DHT22;31655;48.972;10.686;2023-11-19T00:01:39;4.70;99.90
45945;DHT22;31655;48.972;10.686;2023-11-19T00:04:04;4.70;99.90
45945;DHT22;31655;48.972;10.686;2023-11-19T00:06:30;4.80;99.90
45945;DHT22;31655;48.972;10.686;2023-11-19T00:08:55;4.80;99.90
45945;DHT22;31655;48.972;10.686;2023-11-19T00:13:47;4.80;99.90
45945;DHT22;31655;48.972;10.686;2023-11-19T00:16:13;4.80;99.90
45945;DHT22;31655;48.972;10.686;2023-11-19T00:18:38;4.80;99.90
45945;DHT22;31655;48.972;10.686;2023-11-19T00:21:05;4.80;99.90
45945;DHT22;31655;48.972;10.686;2023-11-19T00:23:30;4.80;99.90
45945;DHT22;31655;48.972;10.686;2023-11-19T00:25:56;4.80;99.90
45945;DHT22;31655;48.972;10.686;2023-11-19T00:28:21;4.80;99.90
45945;DHT22;31655;48.972;10.686;2023-11-19T00:30:48;4.90;99.90
45945;DHT22;31655;48.972;10.686;2023-11-19T00:33:14;4.90;99.90
45945;DHT22;31655;48.972;10.686;2023-11-19T00:35:40;4.90;99.90
45945;DHT22;31655;48.972;10.686;2023-11-19T00:38:06;4.80;99.90
45945;DHT22;31655;48.972;10.686;2023-11-19T00:40:31;4.90;99.90
45945;DHT22;31655;48.972;10.686;2023-11-19T00:42:57;4.90;99.90
45945;DHT22;31655;48.972;10.686;2023-11-19T00:45:22;5.70;99.90
45945;DHT22;31655;48.972;10.686;2023-11-19T00:47:48;4.90;99.90
45945;DHT22;31655;48.972;10.686;2023-11-19T00:50:14;5.90;99.90
45945;DHT22;31655;48.972;10.686;2023-11-19T00:52:39;5.00;99.90
45945;DHT22;31655;48.972;10.686;2023-11-19T00:55:06;5.00;99.90
45945;DHT22;31655;48.972;10.686;2023-11-19T00:57:32;4.90;99.90
45945;DHT22;31655;48.972;10.686;2023-11-19T00:59:58;5.00;99.90
45945;DHT22;31655;48.972;10.686;2023-11-19T01:02:24;5.00;99.90
45945;DHT22;31655;48.972;10.686;2023-11-19T01:04:49;5.00;99.90
45945;DHT22;31655;48.972;10.686;2023-11-19T01:07:15;5.00;99.90
45945;DHT22;31655;48.972;10.686;2023-11-19T01:09:42;5.00;99.90
45945;DHT22;31655;48.972;10.686;2023-11-19T01:12:08;5.00;99.90
45945;DHT22;31655;48.972;10.686;2023-11-19T01:14:34;5.30;99.90
45945;DHT22;31655;48.972;10.686;2023-11-19T01:17:01;5.10;99.90
45945;DHT22;31655;48.972;10.686;2023-11-19T01:19:26;5.10;99.90
45945;DHT22;31655;48.972;10.686;2023-11-19T01:21:54;5.10;99.90
45945;DHT22;31655;48.972;10.686;2023-11-19T01:24:19;5.20;99.90
45945;DHT22;31655;48.972;10.686;2023-11-19T01:26:45;5.20;99.90
45945;DHT22;31655;48.972;10.686;2023-11-19T01:29:15;5.20;99.90
45945;DHT22;31655;48.972;10.686;2023-11-19T01:31:41;5.20;99.90
45945;DHT22;31655;48.972;10.686;2023-11-19T01:34:07;5.30;99.90
45945;DHT22;31655;48.972;10.686;2023-11-19T01:38:59;5.30;99.90
45945;DHT22;31655;48.972;10.686;2023-11-19T01:41:24;5.30;99.90
45945;DHT22;31655;48.972;10.686;2023-11-19T01:43:50;5.30;99.90
45945;DHT22;31655;48.972;10.686;2023-11-19T01:46:16;5.30;99.90
45945;DHT22;31655;48.972;10.686;2023-11-19T01:48:44;5.30;99.90
45945;DHT22;31655;48.972;10.686;2023-11-19T01:51:12;5.20;99.90
45945;DHT22;31655;48.972;10.686;2023-11-19T01:53:38;5.30;99.90
45945;DHT22;31655;48.972;10.686;2023-11-19T01:56:05;5.30;99.90
45945;DHT22;31655;48.972;10.686;2023-11-19T01:58:35;4.10;99.90
45945;DHT22;31655;48.972;10.686;2023-11-19T02:01:00;5.40;99.90
45945;DHT22;31655;48.972;10.686;2023-11-19T02:03:31;5.40;99.90
45945;DHT22;31655;48.972;10.686;2023-11-19T02:05:58;5.40;99.90
45945;DHT22;31655;48.972;10.686;2023-11-19T02:08:24;5.40;99.90
45945;DHT22;31655;48.972;10.686;2023-11-19T02:10:50;5.40;99.90
45945;DHT22;31655;48.972;10.686;2023-11-19T02:13:15;5.40;99.90
45945;DHT22;31655;48.972;10.686;2023-11-19T02:15:41;5.40;99.90
45945;DHT22;31655;48.972;10.686;2023-11-19T02:18:21;5.40;99.90
45945;DHT22;31655;48.972;10.686;2023-11-19T02:20:48;5.50;99.90
45945;DHT22;31655;48.972;10.686;2023-11-19T02:23:14;5.40;99.90
45945;DHT22;31655;48.972;10.686;2023-11-19T02:25:40;5.50;99.90
45945;DHT22;31655;48.972;10.686;2023-11-19T02:28:06;5.50;99.90
45945;DHT22;31655;48.972;10.686;2023-11-19T02:30:32;5.50;99.90
45945;DHT22;31655;48.972;10.686;2023-11-19T02:33:01;5.40;99.90
45945;DHT22;31655;48.972;10.686;2023-11-19T02:35:31;5.40;99.90
45945;DHT22;31655;48.972;10.686;2023-11-19T02:37:58;5.40;99.90
45945;DHT22;31655;48.972;10.686;2023-11-19T02:40:29;5.40;99.90
45945;DHT22;31655;48.972;10.686;2023-11-19T02:42:54;5.40;99.90
45945;DHT22;31655;48.972;10.686;2023-11-19T02:45:22;5.50;99.90
45945;DHT22;31655;48.972;10.686;2023-11-19T02:47:48;5.50;99.90
45945;DHT22;31655;48.972;10.686;2023-11-19T02:50:14;5.50;99.90
45945;DHT22;31655;48.972;10.686;2023-11-19T02:52:44;5.50;99.90
45945;DHT22;31655;48.972;10.686;2023-11-19T02:55:11;5.50;99.90
45945;DHT22;31655;48.972;10.686;2023-11-19T02:57:41;5.50;99.90
45945;DHT22;31655;48.972;10.686;2023-11-19T03:00:19;5.50;99.90
45945;DHT22;31655;48.972;10.686;2023-11-19T03:02:49;5.50;99.90
45945;DHT22;31655;48.972;10.686;2023-11-19T03:05:23;5.50;99.90
45945;DHT22;31655;48.972;10.686;2023-11-19T03:07:49;5.60;99.90
45945;DHT22;31655;48.972;10.686;2023-11-19T03:10:15;5.50;99.90
45945;DHT22;31655;48.972;10.686;2023-11-19T03:12:41;5.50;99.90
45945;DHT22;31655;48.972;10.686;2023-11-19T03:15:07;7.00;99.90
45945;DHT22;31655;48.972;10.686;2023-11-19T03:17:36;5.50;99.90
45945;DHT22;31655;48.972;10.686;2023-11-19T03:20:03;5.50;99.90
45945;DHT22;31655;48.972;10.686;2023-11-19T03:22:29;5.50;99.90
45945;DHT22;31655;48.972;10.686;2023-11-19T03:24:55;5.50;99.90
45945;DHT22;31655;48.972;10.686;2023-11-19T03:27:21;5.60;99.90
45945;DHT22;31655;48.972;10.686;2023-11-19T03:29:46;5.60;99.90
45945;DHT22;31655;48.972;10.686;2023-11-19T03:32:12;5.60;99.90
45945;DHT22;31655;48.972;10.686;2023-11-19T03:34:38;5.60;99.90
45945;DHT22;31655;48.972;10.686;2023-11-19T03:37:03;5.60;99.90
45945;DHT22;31655;48.972;10.686;2023-11-19T03:39:29;5.60;99.90
45945;DHT22;31655;48.972;10.686;2023-11-19T03:41:54;5.70;99.90
45945;DHT22;31655;48.972;10.686;2023-11-19T03:44:20;5.60;99.90
45945;DHT22;31655;48.972;10.686;2023-11-19T03:46:47;5.70;99.90
45945;DHT22;31655;48.972;10.686;2023-11-19T03:49:12;5.60;99.90
45945;DHT22;31655;48.972;10.686;2023-11-19T03:51:38;5.60;99.90
45945;DHT22;31655;48.972;10.686;2023-11-19T03:54:03;5.60;99.90
45945;DHT22;31655;48.972;10.686;2023-11-19T03:56:29;5.70;99.90
45945;DHT22;31655;48.972;10.686;2023-11-19T03:58:56;5.70;99.90
45945;DHT22;31655;48.972;10.686;2023-11-19T04:01:22;5.80;99.90
45945;DHT22;31655;48.972;10.686;2023-11-19T04:03:47;5.80;99.90
45945;DHT22;31655;48.972;10.686;2023-11-19T04:06:12;5.80;99.90
45945;DHT22;31655;48.972;10.686;2023-11-19T04:08:38;5.80;99.90
45945;DHT22;31655;48.972;10.686;2023-11-19T04:11:04;5.80;99.90
45945;DHT22;31655;48.972;10.686;2023-11-19T04:13:30;5.80;99.90
45945;DHT22;31655;48.972;10.686;2023-11-19T04:15:56;5.80;99.90
45945;DHT22;31655;48.972;10.686;2023-11-19T04:18:21;5.80;99.90
45945;DHT22;31655;48.972;10.686;2023-11-19T04:20:47;5.80;99.90
45945;DHT22;31655;48.972;10.686;2023-11-19T04:23:12;5.80;99.90
45945;DHT22;31655;48.972;10.686;2023-11-19T04:25:38;5.90;99.90
45945;DHT22;31655;48.972;10.686;2023-11-19T04:28:03;5.90;99.90
45945;DHT22;31655;48.972;10.686;2023-11-19T04:30:29;6.00;99.90
45945;DHT22;31655;48.972;10.686;2023-11-19T04:32:57;6.00;99.90
45945;DHT22;31655;48.972;10.686;2023-11-19T04:35:23;6.00;99.90
45945;DHT22;31655;48.972;10.686;2023-11-19T04:37:48;6.10;99.90
45945;DHT22;31655;48.972;10.686;2023-11-19T04:40:14;6.10;99.90
45945;DHT22;31655;48.972;10.686;2023-11-19T04:42:40;6.10;99.90
45945;DHT22;31655;48.972;10.686;2023-11-19T04:45:06;6.10;99.90
45945;DHT22;31655;48.972;10.686;2023-11-19T04:47:33;6.10;99.90
45945;DHT22;31655;48.972;10.686;2023-11-19T04:49:58;6.10;99.90
45945;DHT22;31655;48.972;10.686;2023-11-19T04:52:24;6.20;99.90
45945;DHT22;31655;48.972;10.686;2023-11-19T04:54:49;6.10;99.90
45945;DHT22;31655;48.972;10.686;2023-11-19T04:57:15;6.20;99.90
45945;DHT22;31655;48.972;10.686;2023-11-19T04:59:41;6.20;99.90
45945;DHT22;31655;48.972;10.686;2023-11-19T05:02:06;6.20;99.90
45945;DHT22;31655;48.972;10.686;2023-11-19T05:04:33;6.20;99.90
45945;DHT22;31655;48.972;10.686;2023-11-19T05:06:59;6.20;99.90
45945;DHT22;31655;48.972;10.686;2023-11-19T05:09:24;6.20;99.90
45945;DHT22;31655;48.972;10.686;2023-11-19T05:11:50;6.30;99.90
45945;DHT22;31655;48.972;10.686;2023-11-19T05:14:16;6.30;99.90
45945;DHT22;31655;48.972;10.686;2023-11-19T05:16:42;6.30;99.90
45945;DHT22;31655;48.972;10.686;2023-11-19T05:19:08;6.30;99.90
45945;DHT22;31655;48.972;10.686;2023-11-19T05:21:34;6.40;99.90
45945;DHT22;31655;48.972;10.686;2023-11-19T05:24:04;6.40;99.90
45945;DHT22;31655;48.972;10.686;2023-11-19T05:26:30;6.40;99.90
45945;DHT22;31655;48.972;10.686;2023-11-19T05:28:56;6.40;99.90
45945;DHT22;31655;48.972;10.686;2023-11-19T05:31:21;6.40;99.90
45945;DHT22;31655;48.972;10.686;2023-11-19T05:33:47;6.40;99.90
45945;DHT22;31655;48.972;10.686;2023-11-19T05:36:12;6.50;99.90
45945;DHT22;31655;48.972;10.686;2023-11-19T05:38:38;6.50;99.90
45945;DHT22;31655;48.972;10.686;2023-11-19T05:41:04;6.50;99.90
45945;DHT22;31655;48.972;10.686;2023-11-19T05:43:30;6.50;99.90
45945;DHT22;31655;48.972;10.686;2023-11-19T05:45:56;6.50;99.90
45945;DHT22;31655;48.972;10.686;2023-11-19T05:48:22;6.50;99.90
45945;DHT22;31655;48.972;10.686;2023-11-19T05:50:48;6.50;99.90
45945;DHT22;31655;48.972;10.686;2023-11-19T05:53:15;6.60;99.90
45945;DHT22;31655;48.972;10.686;2023-11-19T05:55:41;6.50;99.90
45945;DHT22;31655;48.972;10.686;2023-11-19T05:58:14;6.60;99.90
45945;DHT22;31655;48.972;10.686;2023-11-19T06:00:40;6.60;99.90
45945;DHT22;31655;48.972;10.686;2023-11-19T06:03:08;6.60;99.90
45945;DHT22;31655;48.972;10.686;2023-11-19T06:05:34;7.50;99.90
45945;DHT22;31655;48.972;10.686;2023-11-19T06:07:59;6.70;99.90
45945;DHT22;31655;48.972;10.686;2023-11-19T06:10:25;6.70;99.90
45945;DHT22;31655;48.972;10.686;2023-11-19T06:12:59;6.70;99.90
45945;DHT22;31655;48.972;10.686;2023-11-19T06:15:26;6.70;99.90
45945;DHT22;31655;48.972;10.686;2023-11-19T06:17:52;6.70;99.90
45945;DHT22;31655;48.972;10.686;2023-11-19T06:20:18;6.70;99.90
45945;DHT22;31655;48.972;10.686;2023-11-19T06:22:45;6.80;99.90
45945;DHT22;31655;48.972;10.686;2023-11-19T06:25:11;6.80;99.90
45945;DHT22;31655;48.972;10.686;2023-11-19T06:27:37;6.80;99.90
45945;DHT22;31655;48.972;10.686;2023-11-19T06:30:02;6.80;99.90
45945;DHT22;31655;48.972;10.686;2023-11-19T06:32:28;6.80;99.90
45945;DHT22;31655;48.972;10.686;2023-11-19T06:34:54;6.90;99.90
45945;DHT22;31655;48.972;10.686;2023-11-19T06:37:20;6.90;99.90
45945;DHT22;31655;48.972;10.686;2023-11-19T06:39:45;6.90;99.90
45945;DHT22;31655;48.972;10.686;2023-11-19T06:42:11;7.00;99.90
45945;DHT22;31655;48.972;10.686;2023-11-19T06:44:36;7.00;99.90
45945;DHT22;31655;48.972;10.686;2023-11-19T06:47:02;7.00;99.90
45945;DHT22;31655;48.972;10.686;2023-11-19T06:49:27;7.10;99.90
45945;DHT22;31655;48.972;10.686;2023-11-19T06:51:53;7.00;99.90
45945;DHT22;31655;48.972;10.686;2023-11-19T06:54:18;7.10;99.90
45945;DHT22;31655;48.972;10.686;2023-11-19T06:56:44;7.10;99.90
45945;DHT22;31655;48.972;10.686;2023-11-19T06:59:10;7.10;99.90
45945;DHT22;31655;48.972;10.686;2023-11-19T07:01:36;7.20;99.90
45945;DHT22;31655;48.972;10.686;2023-11-19T07:04:02;7.20;99.90
45945;DHT22;31655;48.972;10.686;2023-11-19T07:06:34;7.30;99.90
45945;DHT22;31655;48.972;10.686;2023-11-19T07:09:00;7.30;99.90
45945;DHT22;31655;48.972;10.686;2023-11-19T07:11:40;7.30;99.90
45945;DHT22;31655;48.972;10.686;2023-11-19T07:14:07;7.30;99.90
45945;DHT22;31655;48.972;10.686;2023-11-19T07:16:33;7.40;99.90
45945;DHT22;31655;48.972;10.686;2023-11-19T07:19:00;7.30;99.90
45945;DHT22;31655;48.972;10.686;2023-11-19T07:21:26;7.40;99.90
45945;DHT22;31655;48.972;10.686;2023-11-19T07:23:54;7.40;99.90
45945;DHT22;31655;48.972;10.686;2023-11-19T07:26:19;7.40;99.90
45945;DHT22;31655;48.972;10.686;2023-11-19T07:28:45;7.40;99.90
45945;DHT22;31655;48.972;10.686;2023-11-19T07:31:13;7.40;99.90
45945;DHT22;31655;48.972;10.686;2023-11-19T07:33:39;7.50;99.90
45945;DHT22;31655;48.972;10.686;2023-11-19T07:36:08;7.50;99.90
45945;DHT22;31655;48.972;10.686;2023-11-19T07:38:34;7.50;99.90
45945;DHT22;31655;48.972;10.686;2023-11-19T07:40:59;7.50;99.90
45945;DHT22;31655;48.972;10.686;2023-11-19T07:43:25;7.50;99.90
45945;DHT22;31655;48.972;10.686;2023-11-19T07:45:51;7.60;99.90
45945;DHT22;31655;48.972;10.686;2023-11-19T07:48:16;7.60;99.90
45945;DHT22;31655;48.972;10.686;2023-11-19T07:50:43;9.80;99.90
45945;DHT22;31655;48.972;10.686;2023-11-19T07:53:08;7.60;99.90
45945;DHT22;31655;48.972;10.686;2023-11-19T07:55:34;7.70;99.90
45945;DHT22;31655;48.972;10.686;2023-11-19T07:58:00;7.70;99.90
45945;DHT22;31655;48.972;10.686;2023-11-19T08:00:26;7.80;99.90
45945;DHT22;31655;48.972;10.686;2023-11-19T08:02:52;7.80;99.90
45945;DHT22;31655;48.972;10.686;2023-11-19T08:05:17;7.80;99.90
45945;DHT22;31655;48.972;10.686;2023-11-19T08:07:43;7.90;99.90
45945;DHT22;31655;48.972;10.686;2023-11-19T08:10:08;7.90;99.90
45945;DHT22;31655;48.972;10.686;2023-11-19T08:12:37;8.00;99.90
45945;DHT22;31655;48.972;10.686;2023-11-19T08:15:03;8.00;99.90
45945;DHT22;31655;48.972;10.686;2023-11-19T08:17:30;8.10;99.90
45945;DHT22;31655;48.972;10.686;2023-11-19T08:19:55;8.60;99.90
45945;DHT22;31655;48.972;10.686;2023-11-19T08:22:21;8.10;99.90
45945;DHT22;31655;48.972;10.686;2023-11-19T08:24:48;8.10;99.90
45945;DHT22;31655;48.972;10.686;2023-11-19T08:27:13;8.20;99.90
45945;DHT22;31655;48.972;10.686;2023-11-19T08:29:39;8.20;99.90
45945;DHT22;31655;48.972;10.686;2023-11-19T08:32:06;8.30;99.90
45945;DHT22;31655;48.972;10.686;2023-11-19T08:34:31;8.30;99.90
45945;DHT22;31655;48.972;10.686;2023-11-19T08:36:57;8.40;99.90
45945;DHT22;31655;48.972;10.686;2023-11-19T08:39:22;8.60;99.90
45945;DHT22;31655;48.972;10.686;2023-11-19T08:41:48;8.70;99.90
45945;DHT22;31655;48.972;10.686;2023-11-19T08:44:14;8.70;99.90
45945;DHT22;31655;48.972;10.686;2023-11-19T08:46:47;8.80;99.90
45945;DHT22;31655;48.972;10.686;2023-11-19T08:49:12;8.70;99.90
45945;DHT22;31655;48.972;10.686;2023-11-19T08:51:38;8.80;99.90
45945;DHT22;31655;48.972;10.686;2023-11-19T08:54:04;8.80;99.90
45945;DHT22;31655;48.972;10.686;2023-11-19T08:56:29;8.90;99.90
45945;DHT22;31655;48.972;10.686;2023-11-19T08:58:58;8.90;99.90
45945;DHT22;31655;48.972;10.686;2023-11-19T09:01:23;8.90;99.90
45945;DHT22;31655;48.972;10.686;2023-11-19T09:03:50;8.90;99.90
45945;DHT22;31655;48.972;10.686;2023-11-19T09:06:15;9.00;99.90
45945;DHT22;31655;48.972;10.686;2023-11-19T09:08:42;9.00;99.90
45945;DHT22;31655;48.972;10.686;2023-11-19T09:11:08;9.10;99.90
45945;DHT22;31655;48.972;10.686;2023-11-19T09:13:35;9.00;99.90
45945;DHT22;31655;48.972;10.686;2023-11-19T09:16:00;9.10;99.90
45945;DHT22;31655;48.972;10.686;2023-11-19T09:18:31;9.10;99.90
45945;DHT22;31655;48.972;10.686;2023-11-19T09:20:57;9.10;99.90
45945;DHT22;31655;48.972;10.686;2023-11-19T09:23:23;9.10;99.90
45945;DHT22;31655;48.972;10.686;2023-11-19T09:25:50;9.00;99.90
45945;DHT22;31655;48.972;10.686;2023-11-19T09:28:16;8.90;99.90
45945;DHT22;31655;48.972;10.686;2023-11-19T09:30:42;8.90;99.90
45945;DHT22;31655;48.972;10.686;2023-11-19T09:33:07;8.80;99.90
45945;DHT22;31655;48.972;10.686;2023-11-19T09:35:33;8.80;99.90
45945;DHT22;31655;48.972;10.686;2023-11-19T09:37:58;8.90;99.90
45945;DHT22;31655;48.972;10.686;2023-11-19T09:40:24;9.00;99.90
45945;DHT22;31655;48.972;10.686;2023-11-19T09:42:50;9.00;99.90
45945;DHT22;31655;48.972;10.686;2023-11-19T09:45:17;9.00;99.90
45945;DHT22;31655;48.972;10.686;2023-11-19T09:47:44;9.00;99.90
45945;DHT22;31655;48.972;10.686;2023-11-19T09:50:17;9.10;99.90
45945;DHT22;31655;48.972;10.686;2023-11-19T09:52:47;9.10;99.90
45945;DHT22;31655;48.972;10.686;2023-11-19T09:55:13;9.20;99.90
45945;DHT22;31655;48.972;10.686;2023-11-19T09:57:40;9.90;99.90
45945;DHT22;31655;48.972;10.686;2023-11-19T10:00:10;9.40;99.90
45945;DHT22;31655;48.972;10.686;2023-11-19T10:02:36;9.40;99.90
45945;DHT22;31655;48.972;10.686;2023-11-19T10:05:05;9.30;99.90
45945;DHT22;31655;48.972;10.686;2023-11-19T10:07:32;9.40;99.90
45945;DHT22;31655;48.972;10.686;2023-11-19T10:10:01;9.50;99.90
45945;DHT22;31655;48.972;10.686;2023-11-19T10:12:29;9.60;99.90
45945;DHT22;31655;48.972;10.686;2023-11-19T10:14:57;9.70;99.90
45945;DHT22;31655;48.972;10.686;2023-11-19T10:17:28;9.80;99.90
45945;DHT22;31655;48.972;10.686;2023-11-19T10:19:55;8.90;99.90
45945;DHT22;31655;48.972;10.686;2023-11-19T10:22:23;10.00;99.90
45945;DHT22;31655;48.972;10.686;2023-11-19T10:24:49;10.10;99.90
45945;DHT22;31655;48.972;10.686;2023-11-19T10:27:15;10.20;99.90
45945;DHT22;31655;48.972;10.686;2023-11-19T10:29:47;10.40;99.90
45945;DHT22;31655;48.972;10.686;2023-11-19T10:32:13;11.00;99.90
45945;DHT22;31655;48.972;10.686;2023-11-19T10:34:40;11.60;99.90
45945;DHT22;31655;48.972;10.686;2023-11-19T10:37:07;11.90;99.90
45945;DHT22;31655;48.972;10.686;2023-11-19T10:39:52;12.70;99.90
45945;DHT22;31655;48.972;10.686;2023-11-19T10:42:19;12.30;99.90
45945;DHT22;31655;48.972;10.686;2023-11-19T10:44:45;12.20;99.90
45945;DHT22;31655;48.972;10.686;2023-11-19T10:47:12;12.10;99.90
45945;DHT22;31655;48.972;10.686;2023-11-19T10:49:38;11.90;99.90
45945;DHT22;31655;48.972;10.686;2023-11-19T10:52:05;11.80;99.90
45945;DHT22;31655;48.972;10.686;2023-11-19T10:54:34;11.70;99.90
45945;DHT22;31655;48.972;10.686;2023-11-19T10:57:02;11.70;99.90
45945;DHT22;31655;48.972;10.686;2023-11-19T10:59:30;11.70;99.90
45945;DHT22;31655;48.972;10.686;2023-11-19T11:01:56;11.70;99.90
45945;DHT22;31655;48.972;10.686;2023-11-19T11:04:23;11.60;99.90
45945;DHT22;31655;48.972;10.686;2023-11-19T11:06:51;11.50;99.90
45945;DHT22;31655;48.972;10.686;2023-11-19T11:09:16;11.50;99.90
45945;DHT22;31655;48.972;10.686;2023-11-19T11:11:46;10.40;99.90
45945;DHT22;31655;48.972;10.686;2023-11-19T11:14:13;11.50;99.90
45945;DHT22;31655;48.972;10.686;2023-11-19T11:16:43;11.40;99.90
45945;DHT22;31655;48.972;10.686;2023-11-19T11:19:13;11.40;99.90
45945;DHT22;31655;48.972;10.686;2023-11-19T11:21:42;11.50;99.90
45945;DHT22;31655;48.972;10.686;2023-11-19T11:27:16;11.60;99.90
45945;DHT22;31655;48.972;10.686;2023-11-19T11:33:21;11.70;99.90
45945;DHT22;31655;48.972;10.686;2023-11-19T11:35:50;11.80;99.90
45945;DHT22;31655;48.972;10.686;2023-11-19T11:38:22;11.90;99.90
45945;DHT22;31655;48.972;10.686;2023-11-19T11:41:15;13.00;99.90
45945;DHT22;31655;48.972;10.686;2023-11-19T11:43:49;12.30;99.90
45945;DHT22;31655;48.972;10.686;2023-11-19T11:49:03;12.30;99.90
45945;DHT22;31655;48.972;10.686;2023-11-19T11:54:31;12.30;99.90
45945;DHT22;31655;48.972;10.686;2023-11-19T11:59:48;10.90;99.90
45945;DHT22;31655;48.972;10.686;2023-11-19T12:02:19;12.50;99.90
45945;DHT22;31655;48.972;10.686;2023-11-19T12:04:51;12.60;99.90
45945;DHT22;31655;48.972;10.686;2023-11-19T12:07:19;12.80;99.90
45945;DHT22;31655;48.972;10.686;2023-11-19T12:09:52;12.90;99.90
45945;DHT22;31655;48.972;10.686;2023-11-19T12:12:25;13.10;99.90
45945;DHT22;31655;48.972;10.686;2023-11-19T12:15:05;13.30;99.90
45945;DHT22;31655;48.972;10.686;2023-11-19T12:20:05;13.30;99.90
45945;DHT22;31655;48.972;10.686;2023-11-19T12:22:38;13.30;99.90
45945;DHT22;31655;48.972;10.686;2023-11-19T12:25:05;13.40;99.90
45945;DHT22;31655;48.972;10.686;2023-11-19T12:27:32;13.50;99.90
45945;DHT22;31655;48.972;10.686;2023-11-19T12:29:59;13.40;99.90
45945;DHT22;31655;48.972;10.686;2023-11-19T12:32:25;13.40;99.90
45945;DHT22;31655;48.972;10.686;2023-11-19T12:34:50;12.90;99.90
45945;DHT22;31655;48.972;10.686;2023-11-19T12:37:16;13.40;99.90
45945;DHT22;31655;48.972;10.686;2023-11-19T12:39:42;13.50;99.90
45945;DHT22;31655;48.972;10.686;2023-11-19T12:42:08;13.60;99.90
45945;DHT22;31655;48.972;10.686;2023-11-19T12:44:34;13.50;99.90
45945;DHT22;31655;48.972;10.686;2023-11-19T12:49:26;13.40;99.90
45945;DHT22;31655;48.972;10.686;2023-11-19T12:51:52;13.20;99.90
45945;DHT22;31655;48.972;10.686;2023-11-19T12:54:18;13.10;99.90
45945;DHT22;31655;48.972;10.686;2023-11-19T12:56:53;14.00;99.90
45945;DHT22;31655;48.972;10.686;2023-11-19T12:59:19;13.30;99.90
45945;DHT22;31655;48.972;10.686;2023-11-19T13:02:14;12.80;99.90
45945;DHT22;31655;48.972;10.686;2023-11-19T13:04:39;12.70;99.90
45945;DHT22;31655;48.972;10.686;2023-11-19T13:07:06;12.70;99.90
45945;DHT22;31655;48.972;10.686;2023-11-19T13:09:31;12.70;99.90
45945;DHT22;31655;48.972;10.686;2023-11-19T13:11:57;12.70;99.90
45945;DHT22;31655;48.972;10.686;2023-11-19T13:14:36;12.70;99.90
45945;DHT22;31655;48.972;10.686;2023-11-19T13:17:02;13.60;99.90
45945;DHT22;31655;48.972;10.686;2023-11-19T13:19:28;12.60;99.90
45945;DHT22;31655;48.972;10.686;2023-11-19T13:21:54;12.60;99.90
45945;DHT22;31655;48.972;10.686;2023-11-19T13:24:19;12.60;99.90
45945;DHT22;31655;48.972;10.686;2023-11-19T13:29:11;12.60;99.90
45945;DHT22;31655;48.972;10.686;2023-11-19T13:34:03;12.60;99.90
45945;DHT22;31655;48.972;10.686;2023-11-19T13:36:30;13.90;99.90
45945;DHT22;31655;48.972;10.686;2023-11-19T13:38:56;12.40;99.90
45945;DHT22;31655;48.972;10.686;2023-11-19T13:41:28;12.50;99.90
45945;DHT22;31655;48.972;10.686;2023-11-19T13:43:53;12.50;99.90
45945;DHT22;31655;48.972;10.686;2023-11-19T13:46:20;12.50;99.90
45945;DHT22;31655;48.972;10.686;2023-11-19T13:48:46;12.50;99.90
45945;DHT22;31655;48.972;10.686;2023-11-19T13:51:11;12.50;99.90
45945;DHT22;31655;48.972;10.686;2023-11-19T13:53:37;13.90;99.90
45945;DHT22;31655;48.972;10.686;2023-11-19T13:56:03;12.50;99.90
45945;DHT22;31655;48.972;10.686;2023-11-19T13:58:28;12.40;99.90
45945;DHT22;31655;48.972;10.686;2023-11-19T14:03:20;12.20;99.90
45945;DHT22;31655;48.972;10.686;2023-11-19T14:05:46;12.20;99.90
45945;DHT22;31655;48.972;10.686;2023-11-19T14:08:11;12.20;99.90
45945;DHT22;31655;48.972;10.686;2023-11-19T14:10:40;12.20;99.90
45945;DHT22;31655;48.972;10.686;2023-11-19T14:13:09;12.30;99.90
45945;DHT22;31655;48.972;10.686;2023-11-19T14:15:34;12.40;99.90
45945;DHT22;31655;48.972;10.686;2023-11-19T14:18:01;12.40;99.90
45945;DHT22;31655;48.972;10.686;2023-11-19T14:20:27;12.60;99.90
45945;DHT22;31655;48.972;10.686;2023-11-19T14:22:52;12.30;99.90
45945;DHT22;31655;48.972;10.686;2023-11-19T14:25:18;12.20;99.90
45945;DHT22;31655;48.972;10.686;2023-11-19T14:27:44;12.10;99.90
45945;DHT22;31655;48.972;10.686;2023-11-19T14:30:12;11.90;99.90
45945;DHT22;31655;48.972;10.686;2023-11-19T14:32:39;11.80;99.90
45945;DHT22;31655;48.972;10.686;2023-11-19T14:35:05;11.70;99.90
45945;DHT22;31655;48.972;10.686;2023-11-19T14:37:31;11.70;99.90
45945;DHT22;31655;48.972;10.686;2023-11-19T14:39:57;11.70;99.90
45945;DHT22;31655;48.972;10.686;2023-11-19T14:42:23;11.60;99.90
45945;DHT22;31655;48.972;10.686;2023-11-19T14:44:50;11.50;99.90
45945;DHT22;31655;48.972;10.686;2023-11-19T14:47:18;11.50;99.90
45945;DHT22;31655;48.972;10.686;2023-11-19T14:49:43;13.80;99.90
45945;DHT22;31655;48.972;10.686;2023-11-19T14:52:09;11.30;99.90
45945;DHT22;31655;48.972;10.686;2023-11-19T14:54:35;11.20;99.90
45945;DHT22;31655;48.972;10.686;2023-11-19T14:57:01;11.20;99.90
45945;DHT22;31655;48.972;10.686;2023-11-19T14:59:26;11.10;99.90
45945;DHT22;31655;48.972;10.686;2023-11-19T15:01:53;11.10;99.90
45945;DHT22;31655;48.972;10.686;2023-11-19T15:04:19;11.10;99.90
45945;DHT22;31655;48.972;10.686;2023-11-19T15:06:44;11.00;99.90
45945;DHT22;31655;48.972;10.686;2023-11-19T15:09:10;10.90;99.90
45945;DHT22;31655;48.972;10.686;2023-11-19T15:11:41;10.80;99.90
45945;DHT22;31655;48.972;10.686;2023-11-19T15:14:07;10.80;99.90
45945;DHT22;31655;48.972;10.686;2023-11-19T15:16:32;10.70;99.90
45945;DHT22;31655;48.972;10.686;2023-11-19T15:19:00;11.00;99.90
45945;DHT22;31655;48.972;10.686;2023-11-19T15:21:26;10.60;99.90
45945;DHT22;31655;48.972;10.686;2023-11-19T15:23:54;10.50;99.90
45945;DHT22;31655;48.972;10.686;2023-11-19T15:26:20;10.50;99.90
45945;DHT22;31655;48.972;10.686;2023-11-19T15:28:46;10.50;99.90
45945;DHT22;31655;48.972;10.686;2023-11-19T15:31:12;10.40;99.90
45945;DHT22;31655;48.972;10.686;2023-11-19T15:33:39;10.40;99.90
45945;DHT22;31655;48.972;10.686;2023-11-19T15:36:06;12.80;99.90
45945;DHT22;31655;48.972;10.686;2023-11-19T15:38:33;10.40;99.90
45945;DHT22;31655;48.972;10.686;2023-11-19T15:40:59;10.40;99.90
45945;DHT22;31655;48.972;10.686;2023-11-19T15:43:25;10.40;99.90
45945;DHT22;31655;48.972;10.686;2023-11-19T15:45:50;10.40;99.90
45945;DHT22;31655;48.972;10.686;2023-11-19T15:48:16;10.50;99.90
45945;DHT22;31655;48.972;10.686;2023-11-19T15:50:41;10.80;99.90
45945;DHT22;31655;48.972;10.686;2023-11-19T15:53:10;10.40;99.90
45945;DHT22;31655;48.972;10.686;2023-11-19T15:55:35;10.40;99.90